createdAt,value
2019-02-08T00:01:31.384Z,2.60
2019-02-08T00:06:35.083Z,2.60
2019-02-08T00:11:38.791Z,3.00
2019-02-08T00:16:42.867Z,3.00
2019-02-08T00:21:46.634Z,2.80
2019-02-08T00:26:50.235Z,2.87
2019-02-08T00:31:54.028Z,3.70
2019-02-08T00:36:57.815Z,3.07
2019-02-08T00:42:01.883Z,3.63
2019-02-08T00:47:05.499Z,3.63
2019-02-08T00:52:09.137Z,3.30
2019-02-08T00:57:12.804Z,3.60
2019-02-08T01:02:16.533Z,3.60
2019-02-08T01:07:20.245Z,6.43
2019-02-08T01:12:23.925Z,4.20
2019-02-08T01:17:27.533Z,3.80
2019-02-08T01:22:31.463Z,4.07
2019-02-08T01:27:35.119Z,3.73
2019-02-08T01:32:38.798Z,3.80
2019-02-08T01:37:42.899Z,4.10
2019-02-08T01:42:46.493Z,4.10
2019-02-08T01:47:50.224Z,3.77
2019-02-08T01:52:53.880Z,3.87
2019-02-08T01:57:57.587Z,4.37
2019-02-08T02:03:02.110Z,4.03
2019-02-08T02:08:06.026Z,4.13
2019-02-08T02:13:09.891Z,4.00
2019-02-08T02:18:13.592Z,3.87
2019-02-08T02:23:17.380Z,4.07
2019-02-08T02:28:21.062Z,3.53
2019-02-08T02:33:24.757Z,4.10
2019-02-08T02:38:28.377Z,3.10
2019-02-08T02:43:32.571Z,3.57
2019-02-08T02:48:36.330Z,3.60
2019-02-08T02:53:39.934Z,3.67
2019-02-08T02:58:43.604Z,3.57
2019-02-08T03:03:47.241Z,3.70
2019-02-08T03:08:50.914Z,4.07
2019-02-08T03:13:54.520Z,3.30
2019-02-08T03:18:58.151Z,3.43
2019-02-08T03:24:01.826Z,3.13
2019-02-08T03:29:05.419Z,3.37
2019-02-08T03:34:09.193Z,3.30
2019-02-08T03:39:12.868Z,2.97
2019-02-08T03:44:16.472Z,3.00
2019-02-08T03:49:20.107Z,3.37
2019-02-08T03:54:23.808Z,3.10
2019-02-08T03:59:27.415Z,2.87
2019-02-08T04:04:31.138Z,2.37
2019-02-08T04:09:34.821Z,2.83
2019-02-08T04:14:38.495Z,2.50
2019-02-08T04:19:43.314Z,2.30
2019-02-08T04:24:46.983Z,2.47
2019-02-08T04:29:50.690Z,2.43
2019-02-08T04:34:54.433Z,2.13
2019-02-08T04:39:58.098Z,2.50
2019-02-08T04:45:01.826Z,2.37
2019-02-08T04:50:05.826Z,2.23
2019-02-08T04:55:09.620Z,2.73
2019-02-08T05:00:19.166Z,2.57
2019-02-08T05:05:22.806Z,2.37
2019-02-08T05:10:27.492Z,3.17
2019-02-08T05:15:31.199Z,3.03
2019-02-08T05:20:34.941Z,3.00
2019-02-08T05:25:38.520Z,2.90
2019-02-08T05:30:42.291Z,3.20
2019-02-08T05:35:45.897Z,3.07
2019-02-08T05:40:49.495Z,2.50
2019-02-08T05:45:53.389Z,2.60
2019-02-08T05:50:57.003Z,2.57
2019-02-08T05:56:00.700Z,2.33
2019-02-08T06:01:04.581Z,2.83
2019-02-08T06:06:08.403Z,2.37
2019-02-08T06:11:12.130Z,2.13
2019-02-08T06:16:18.542Z,2.37
2019-02-08T06:21:22.300Z,1.80
2019-02-08T06:26:25.894Z,2.23
2019-02-08T06:31:29.577Z,2.00
2019-02-08T06:36:33.281Z,1.97
2019-02-08T06:41:36.973Z,2.07
2019-02-08T06:46:40.670Z,1.83
2019-02-08T06:51:44.284Z,2.00
2019-02-08T06:57:05.710Z,1.60
2019-02-08T07:02:35.248Z,1.60
2019-02-08T07:07:52.188Z,1.80
2019-02-08T07:13:13.856Z,1.83
2019-02-08T07:18:55.062Z,1.67
2019-02-08T07:24:20.892Z,1.80
2019-02-08T07:29:43.723Z,1.80
2019-02-08T07:35:12.641Z,1.30
2019-02-08T07:40:40.207Z,1.60
2019-02-08T07:45:58.893Z,1.70
2019-02-08T07:51:24.458Z,1.70
2019-02-08T07:56:38.996Z,1.60
2019-02-08T08:02:04.508Z,1.60
2019-02-08T08:07:16.039Z,1.43
2019-02-08T08:12:41.797Z,1.40
2019-02-08T08:18:14.155Z,1.40
2019-02-08T08:23:43.010Z,1.40
2019-02-08T08:29:03.066Z,1.70
2019-02-08T08:34:10.757Z,1.70
2019-02-08T08:39:29.625Z,1.47
2019-02-08T08:44:38.192Z,1.30
2019-02-08T08:50:06.772Z,1.50
2019-02-08T08:55:22.671Z,1.50
2019-02-08T09:00:51.420Z,1.57
2019-02-08T09:06:19.470Z,1.60
2019-02-08T09:11:38.673Z,1.80
2019-02-08T09:17:04.522Z,1.93
2019-02-08T09:22:17.357Z,1.70
2019-02-08T09:27:39.180Z,1.60
2019-02-08T09:32:56.102Z,2.12
2019-02-08T09:38:28.225Z,2.17
2019-02-08T09:44:09.214Z,2.10
2019-02-08T09:49:30.913Z,2.03
2019-02-08T09:54:51.130Z,2.20
2019-02-08T10:00:20.033Z,2.45
2019-02-08T10:05:41.486Z,1.90
2019-02-08T10:11:02.905Z,5.70
2019-02-08T10:16:24.628Z,2.00
2019-02-08T10:21:47.458Z,1.70
2019-02-08T10:27:08.922Z,1.87
2019-02-08T10:32:43.994Z,2.10
2019-02-08T10:38:06.814Z,2.15
2019-02-08T10:43:30.080Z,2.00
2019-02-08T10:48:51.954Z,1.65
2019-02-08T10:54:30.105Z,1.57
2019-02-08T10:59:52.900Z,1.87
2019-02-08T11:05:25.043Z,1.62
2019-02-08T11:11:06.390Z,1.90
2019-02-08T11:16:47.678Z,1.90
2019-02-08T11:21:52.110Z,1.75
2019-02-08T11:26:57.075Z,1.65
2019-02-08T11:32:00.712Z,2.02
2019-02-08T11:37:04.520Z,1.90
2019-02-08T11:42:08.221Z,1.70
2019-02-08T11:47:11.817Z,2.00
2019-02-08T11:52:15.521Z,1.77
2019-02-08T11:57:19.204Z,2.45
2019-02-08T12:02:22.996Z,1.92
2019-02-08T12:07:26.743Z,2.35
2019-02-08T12:12:30.454Z,2.00
2019-02-08T12:17:34.147Z,2.20
2019-02-08T12:22:37.841Z,2.08
2019-02-08T12:27:41.515Z,2.50
2019-02-08T12:32:45.170Z,2.17
2019-02-08T12:37:48.811Z,1.87
2019-02-08T12:42:52.531Z,2.13
2019-02-08T12:47:56.239Z,2.35
2019-02-08T12:52:59.906Z,1.97
2019-02-08T12:58:03.640Z,2.25
2019-02-08T13:03:07.346Z,1.98
2019-02-08T13:08:11.102Z,2.10
2019-02-08T13:13:14.804Z,1.80
2019-02-08T13:18:18.402Z,2.00
2019-02-08T13:23:22.123Z,1.70
2019-02-08T13:28:25.850Z,2.30
2019-02-08T13:33:29.531Z,2.10
2019-02-08T13:38:33.232Z,1.77
2019-02-08T13:43:36.924Z,2.08
2019-02-08T13:48:40.534Z,2.08
2019-02-08T13:53:44.238Z,2.00
2019-02-08T13:58:47.950Z,2.15
2019-02-08T14:03:51.756Z,2.12
2019-02-08T14:08:56.327Z,2.27
2019-02-08T14:14:00.031Z,2.40
2019-02-08T14:19:03.709Z,2.30
2019-02-08T14:24:07.310Z,2.20
2019-02-08T14:29:10.932Z,2.72
2019-02-08T14:34:14.541Z,2.65
2019-02-08T14:39:18.245Z,2.85
2019-02-08T14:44:21.935Z,2.90
2019-02-08T14:49:25.635Z,2.45
2019-02-08T14:54:29.449Z,2.27
2019-02-08T14:59:33.148Z,2.67
2019-02-08T15:04:36.933Z,2.37
2019-02-08T15:09:40.617Z,2.50
2019-02-08T15:14:44.408Z,2.47
2019-02-08T15:19:48.109Z,2.83
2019-02-08T15:24:51.799Z,2.90
2019-02-08T15:29:55.481Z,3.20
2019-02-08T15:34:59.136Z,2.70
2019-02-08T15:40:02.831Z,2.35
2019-02-08T15:45:08.654Z,2.70
2019-02-08T15:50:12.716Z,2.25
2019-02-08T15:55:18.009Z,2.60
2019-02-08T16:00:23.207Z,2.45
2019-02-08T16:05:27.103Z,2.10
2019-02-08T16:10:30.791Z,2.00
2019-02-08T16:15:34.546Z,1.82
2019-02-08T16:20:38.453Z,2.00
2019-02-08T16:25:42.154Z,2.05
2019-02-08T16:30:45.921Z,1.90
2019-02-08T16:35:49.643Z,2.03
2019-02-08T16:40:53.356Z,1.90
2019-02-08T16:45:57.069Z,2.40
2019-02-08T16:51:00.799Z,2.10
2019-02-08T16:56:04.828Z,2.10
2019-02-08T17:01:10.011Z,1.80
2019-02-08T17:06:13.650Z,2.42
2019-02-08T17:11:17.308Z,1.67
2019-02-08T17:16:22.566Z,2.17
2019-02-08T17:21:26.332Z,2.22
2019-02-08T17:26:30.043Z,1.90
2019-02-08T17:31:33.787Z,1.90
2019-02-08T17:36:37.504Z,1.90
2019-02-08T17:41:41.208Z,2.12
2019-02-08T17:46:44.918Z,2.83
2019-02-08T17:51:48.625Z,2.12
2019-02-08T17:56:52.338Z,2.02
2019-02-08T18:01:56.051Z,2.22
2019-02-08T18:06:59.771Z,2.50
2019-02-08T18:12:03.557Z,2.65
2019-02-08T18:17:07.292Z,2.60
2019-02-08T18:22:11.077Z,2.40
2019-02-08T18:27:14.806Z,2.50
2019-02-08T18:32:18.517Z,2.37
2019-02-08T18:37:22.130Z,2.60
2019-02-08T18:42:25.844Z,2.40
2019-02-08T18:47:29.584Z,2.10
2019-02-08T18:52:33.222Z,2.20
2019-02-08T18:57:36.946Z,1.80
2019-02-08T19:02:40.603Z,2.12
2019-02-08T19:07:44.339Z,2.55
2019-02-08T19:12:48.091Z,1.87
2019-02-08T19:17:51.820Z,2.17
2019-02-08T19:22:55.510Z,1.42
2019-02-08T19:27:59.250Z,2.22
2019-02-08T19:33:02.966Z,1.65
2019-02-08T19:38:06.938Z,1.75
2019-02-08T19:43:10.726Z,1.67
2019-02-08T19:48:14.713Z,1.57
2019-02-08T19:53:18.350Z,1.80
2019-02-08T19:58:22.109Z,1.52
2019-02-08T20:03:25.849Z,1.90
2019-02-08T20:08:29.617Z,1.87
2019-02-08T20:13:33.306Z,1.82
2019-02-08T20:18:37.007Z,2.10
2019-02-08T20:23:40.772Z,1.50
2019-02-08T20:28:44.554Z,1.45
2019-02-08T20:33:48.258Z,1.50
2019-02-08T20:38:51.993Z,1.50
2019-02-08T20:43:55.696Z,1.60
2019-02-08T20:48:59.480Z,1.17
2019-02-08T20:54:03.188Z,1.70
2019-02-08T20:59:06.878Z,1.57
2019-02-08T21:04:10.576Z,1.10
2019-02-08T21:09:14.403Z,1.40
2019-02-08T21:14:18.187Z,2.00
2019-02-08T21:19:21.907Z,1.50
2019-02-08T21:24:25.534Z,1.67
2019-02-08T21:29:30.750Z,2.03
2019-02-08T21:34:34.534Z,1.80
2019-02-08T21:39:38.341Z,1.72
2019-02-08T21:44:42.190Z,1.60
2019-02-08T21:49:45.944Z,1.87
2019-02-08T21:54:49.660Z,1.90
2019-02-08T21:59:53.374Z,1.90
2019-02-08T22:04:56.997Z,2.08
2019-02-08T22:10:00.708Z,1.82
2019-02-08T22:15:06.252Z,1.65
2019-02-08T22:20:12.914Z,1.70
2019-02-08T22:25:17.307Z,1.90
2019-02-08T22:30:21.927Z,1.52
2019-02-08T22:35:26.211Z,2.12
2019-02-08T22:40:29.959Z,1.62
2019-02-08T22:45:34.643Z,1.77
2019-02-08T22:50:38.331Z,1.62
2019-02-08T22:55:42.097Z,1.87
2019-02-08T23:01:05.611Z,1.60
2019-02-08T23:06:09.453Z,1.82
2019-02-08T23:11:13.059Z,1.55
2019-02-08T23:16:16.799Z,1.45
2019-02-08T23:21:20.498Z,1.60
2019-02-08T23:26:24.301Z,1.42
2019-02-08T23:31:27.910Z,1.60
2019-02-08T23:36:31.555Z,1.40
2019-02-08T23:41:36.399Z,1.47
2019-02-08T23:46:40.025Z,1.80
2019-02-08T23:51:43.729Z,1.65
2019-02-08T23:56:47.406Z,1.82
